sensor_id;sensor_type;location;lat;lon;timestamp;pressure;altitude;pressure_sealevel;temperature;humidity
42945;BME280;28584;42.636;23.294;2023-03-16T00:01:15;111756.06;;;0.92;100.00
42945;BME280;28584;42.636;23.294;2023-03-16T00:03:40;110982.53;;;0.92;100.00
42945;BME280;28584;42.636;23.294;2023-03-16T00:06:06;110409.81;;;0.86;100.00
42945;BME280;28584;42.636;23.294;2023-03-16T00:08:31;109967.78;;;0.82;100.00
42945;BME280;28584;42.636;23.294;2023-03-16T00:10:57;109672.53;;;0.77;100.00
42945;BME280;28584;42.636;23.294;2023-03-16T00:13:23;109653.63;;;0.77;100.00
42945;BME280;28584;42.636;23.294;2023-03-16T00:15:50;109783.13;;;0.74;100.00
42945;BME280;28584;42.636;23.294;2023-03-16T00:18:16;109732.75;;;0.73;100.00
42945;BME280;28584;42.636;23.294;2023-03-16T00:20:41;110000.72;;;0.66;100.00
42945;BME280;28584;42.636;23.294;2023-03-16T00:23:06;110328.22;;;0.65;100.00
42945;BME280;28584;42.636;23.294;2023-03-16T00:25:32;110614.13;;;0.57;100.00
42945;BME280;28584;42.636;23.294;2023-03-16T00:27:58;111016.16;;;0.53;100.00
42945;BME280;28584;42.636;23.294;2023-03-16T00:30:23;110313.50;;;0.54;100.00
42945;BME280;28584;42.636;23.294;2023-03-16T00:32:49;110182.06;;;0.50;100.00
42945;BME280;28584;42.636;23.294;2023-03-16T00:35:18;110852.78;;;0.39;100.00
42945;BME280;28584;42.636;23.294;2023-03-16T00:37:43;111342.06;;;0.36;100.00
42945;BME280;28584;42.636;23.294;2023-03-16T00:40:09;112010.63;;;0.37;100.00
42945;BME280;28584;42.636;23.294;2023-03-16T00:42:36;112812.34;;;0.36;100.00
42945;BME280;28584;42.636;23.294;2023-03-16T00:45:02;113439.06;;;0.39;100.00
42945;BME280;28584;42.636;23.294;2023-03-16T00:47:29;113271.38;;;0.36;100.00
42945;BME280;28584;42.636;23.294;2023-03-16T00:49:56;112835.22;;;0.41;100.00
42945;BME280;28584;42.636;23.294;2023-03-16T00:52:21;112387.09;;;0.42;100.00
42945;BME280;28584;42.636;23.294;2023-03-16T00:54:48;111875.97;;;0.43;100.00
42945;BME280;28584;42.636;23.294;2023-03-16T00:57:16;112066.44;;;0.38;100.00
42945;BME280;28584;42.636;23.294;2023-03-16T00:59:46;112528.22;;;0.40;100.00
42945;BME280;28584;42.636;23.294;2023-03-16T01:02:12;111795.00;;;0.43;100.00
42945;BME280;28584;42.636;23.294;2023-03-16T01:04:38;111109.38;;;0.43;100.00
42945;BME280;28584;42.636;23.294;2023-03-16T01:07:08;110832.13;;;0.39;100.00
42945;BME280;28584;42.636;23.294;2023-03-16T01:09:35;110027.97;;;0.38;100.00
42945;BME280;28584;42.636;23.294;2023-03-16T01:12:05;109454.22;;;0.35;100.00
42945;BME280;28584;42.636;23.294;2023-03-16T01:14:32;109831.91;;;0.35;100.00
42945;BME280;28584;42.636;23.294;2023-03-16T01:16:59;110399.25;;;0.33;100.00
42945;BME280;28584;42.636;23.294;2023-03-16T01:19:25;110536.13;;;0.37;100.00
42945;BME280;28584;42.636;23.294;2023-03-16T01:21:51;109722.16;;;0.34;100.00
42945;BME280;28584;42.636;23.294;2023-03-16T01:24:16;109663.66;;;0.32;100.00
42945;BME280;28584;42.636;23.294;2023-03-16T01:26:42;109587.97;;;0.21;100.00
42945;BME280;28584;42.636;23.294;2023-03-16T01:29:07;109276.94;;;0.21;100.00
42945;BME280;28584;42.636;23.294;2023-03-16T01:31:32;109008.13;;;0.15;100.00
42945;BME280;28584;42.636;23.294;2023-03-16T01:33:58;109125.88;;;0.16;100.00
42945;BME280;28584;42.636;23.294;2023-03-16T01:36:25;109693.03;;;0.15;100.00
42945;BME280;28584;42.636;23.294;2023-03-16T01:38:50;110133.50;;;0.14;100.00
42945;BME280;28584;42.636;23.294;2023-03-16T01:41:15;110532.69;;;0.14;100.00
42945;BME280;28584;42.636;23.294;2023-03-16T01:43:41;110425.75;;;0.16;100.00
42945;BME280;28584;42.636;23.294;2023-03-16T01:46:23;110479.63;;;0.15;100.00
42945;BME280;28584;42.636;23.294;2023-03-16T01:56:38;111087.25;;;0.09;100.00
42945;BME280;28584;42.636;23.294;2023-03-16T01:59:09;136419.25;;;0.12;100.00
42945;BME280;28584;42.636;23.294;2023-03-16T02:01:35;135939.03;;;0.13;100.00
42945;BME280;28584;42.636;23.294;2023-03-16T02:04:07;132658.69;;;0.13;100.00
42945;BME280;28584;42.636;23.294;2023-03-16T02:06:38;127945.47;;;0.14;100.00
42945;BME280;28584;42.636;23.294;2023-03-16T02:09:04;124944.56;;;0.12;100.00
42945;BME280;28584;42.636;23.294;2023-03-16T02:11:30;122447.75;;;0.17;100.00
42945;BME280;28584;42.636;23.294;2023-03-16T02:13:57;120637.63;;;0.13;100.00
42945;BME280;28584;42.636;23.294;2023-03-16T02:16:25;119504.03;;;0.06;100.00
42945;BME280;28584;42.636;23.294;2023-03-16T02:18:50;118121.41;;;0.03;100.00
42945;BME280;28584;42.636;23.294;2023-03-16T02:21:42;117065.56;;;0.03;100.00
42945;BME280;28584;42.636;23.294;2023-03-16T02:24:11;116280.19;;;0.01;100.00
42945;BME280;28584;42.636;23.294;2023-03-16T02:26:59;116170.22;;;0.00;100.00
42945;BME280;28584;42.636;23.294;2023-03-16T02:32:05;116153.44;;;-0.04;100.00
42945;BME280;28584;42.636;23.294;2023-03-16T02:34:32;116255.69;;;-0.07;100.00
42945;BME280;28584;42.636;23.294;2023-03-16T02:36:58;115683.00;;;-0.09;100.00
42945;BME280;28584;42.636;23.294;2023-03-16T02:39:25;115517.50;;;-0.08;100.00
42945;BME280;28584;42.636;23.294;2023-03-16T02:41:51;115476.22;;;-0.07;100.00
42945;BME280;28584;42.636;23.294;2023-03-16T02:44:22;115545.22;;;-0.02;100.00
42945;BME280;28584;42.636;23.294;2023-03-16T02:46:51;115785.03;;;-0.06;100.00
42945;BME280;28584;42.636;23.294;2023-03-16T02:49:23;139757.88;;;-0.11;100.00
42945;BME280;28584;42.636;23.294;2023-03-16T02:51:50;141072.75;;;-0.11;100.00
42945;BME280;28584;42.636;23.294;2023-03-16T02:54:15;137499.22;;;-0.17;100.00
42945;BME280;28584;42.636;23.294;2023-03-16T02:56:41;128078.44;;;-0.17;100.00
42945;BME280;28584;42.636;23.294;2023-03-16T02:59:06;122672.81;;;-0.21;100.00
42945;BME280;28584;42.636;23.294;2023-03-16T03:01:32;119489.03;;;-0.23;100.00
42945;BME280;28584;42.636;23.294;2023-03-16T03:03:59;117436.84;;;-0.21;100.00
42945;BME280;28584;42.636;23.294;2023-03-16T03:06:25;116461.50;;;-0.17;100.00
42945;BME280;28584;42.636;23.294;2023-03-16T03:08:50;115823.50;;;-0.23;100.00
42945;BME280;28584;42.636;23.294;2023-03-16T03:11:16;115627.28;;;-0.31;100.00
42945;BME280;28584;42.636;23.294;2023-03-16T03:13:44;115108.72;;;-0.34;100.00
42945;BME280;28584;42.636;23.294;2023-03-16T03:16:09;114910.16;;;-0.32;100.00
42945;BME280;28584;42.636;23.294;2023-03-16T03:18:35;115570.97;;;-0.28;100.00
42945;BME280;28584;42.636;23.294;2023-03-16T03:21:00;115378.50;;;-0.27;100.00
42945;BME280;28584;42.636;23.294;2023-03-16T03:23:25;115062.56;;;-0.28;100.00
42945;BME280;28584;42.636;23.294;2023-03-16T03:25:51;115159.66;;;-0.37;100.00
42945;BME280;28584;42.636;23.294;2023-03-16T03:28:16;114513.38;;;-0.42;100.00
42945;BME280;28584;42.636;23.294;2023-03-16T03:30:42;114094.53;;;-0.39;100.00
42945;BME280;28584;42.636;23.294;2023-03-16T03:33:07;114109.28;;;-0.36;100.00
42945;BME280;28584;42.636;23.294;2023-03-16T03:35:32;114529.88;;;-0.39;100.00
42945;BME280;28584;42.636;23.294;2023-03-16T03:37:58;114160.78;;;-0.43;100.00
42945;BME280;28584;42.636;23.294;2023-03-16T03:40:23;114043.53;;;-0.46;100.00
42945;BME280;28584;42.636;23.294;2023-03-16T03:42:49;114514.47;;;-0.40;100.00
42945;BME280;28584;42.636;23.294;2023-03-16T03:45:16;113719.56;;;-0.39;100.00
42945;BME280;28584;42.636;23.294;2023-03-16T03:47:42;114641.56;;;-0.37;100.00
42945;BME280;28584;42.636;23.294;2023-03-16T03:50:09;115716.59;;;-0.36;100.00
42945;BME280;28584;42.636;23.294;2023-03-16T03:52:35;116507.72;;;-0.42;100.00
42945;BME280;28584;42.636;23.294;2023-03-16T03:55:00;119067.19;;;-0.45;100.00
42945;BME280;28584;42.636;23.294;2023-03-16T03:57:26;158445.88;;;-0.44;100.00
42945;BME280;28584;42.636;23.294;2023-03-16T03:59:51;158435.28;;;-0.48;100.00
42945;BME280;28584;42.636;23.294;2023-03-16T04:02:16;158445.88;;;-0.44;100.00
42945;BME280;28584;42.636;23.294;2023-03-16T04:04:42;158447.22;;;-0.43;100.00
42945;BME280;28584;42.636;23.294;2023-03-16T04:07:08;158451.19;;;-0.42;100.00
42945;BME280;28584;42.636;23.294;2023-03-16T04:09:33;158448.56;;;-0.43;100.00
42945;BME280;28584;42.636;23.294;2023-03-16T04:12:00;158439.25;;;-0.46;100.00
42945;BME280;28584;42.636;23.294;2023-03-16T04:14:26;158435.28;;;-0.48;100.00
42945;BME280;28584;42.636;23.294;2023-03-16T04:16:52;158437.97;;;-0.47;100.00
42945;BME280;28584;42.636;23.294;2023-03-16T04:19:19;158445.88;;;-0.44;100.00
42945;BME280;28584;42.636;23.294;2023-03-16T04:21:44;158437.97;;;-0.47;100.00
42945;BME280;28584;42.636;23.294;2023-03-16T04:24:09;158430.03;;;-0.50;100.00
42945;BME280;28584;42.636;23.294;2023-03-16T04:26:42;158431.31;;;-0.49;100.00
42945;BME280;28584;42.636;23.294;2023-03-16T04:29:10;158422.06;;;-0.53;100.00
42945;BME280;28584;42.636;23.294;2023-03-16T04:31:35;158427.34;;;-0.51;100.00
42945;BME280;28584;42.636;23.294;2023-03-16T04:34:00;158437.97;;;-0.47;100.00
42945;BME280;28584;42.636;23.294;2023-03-16T04:36:26;158424.72;;;-0.52;100.00
42945;BME280;28584;42.636;23.294;2023-03-16T04:38:52;158443.25;;;-0.45;100.00
42945;BME280;28584;42.636;23.294;2023-03-16T04:41:18;158440.59;;;-0.46;100.00
42945;BME280;28584;42.636;23.294;2023-03-16T04:43:44;158443.25;;;-0.45;100.00
42945;BME280;28584;42.636;23.294;2023-03-16T04:46:09;158451.19;;;-0.42;100.00
42945;BME280;28584;42.636;23.294;2023-03-16T04:48:36;158440.59;;;-0.46;100.00
42945;BME280;28584;42.636;23.294;2023-03-16T04:51:02;158427.34;;;-0.51;100.00
42945;BME280;28584;42.636;23.294;2023-03-16T04:53:29;158430.03;;;-0.50;100.00
42945;BME280;28584;42.636;23.294;2023-03-16T04:55:54;158423.38;;;-0.52;100.00
42945;BME280;28584;42.636;23.294;2023-03-16T04:58:19;158415.47;;;-0.55;100.00
42945;BME280;28584;42.636;23.294;2023-03-16T05:00:47;158430.03;;;-0.50;100.00
42945;BME280;28584;42.636;23.294;2023-03-16T05:03:13;158432.66;;;-0.49;100.00
42945;BME280;28584;42.636;23.294;2023-03-16T05:05:39;158434.00;;;-0.48;100.00
42945;BME280;28584;42.636;23.294;2023-03-16T05:08:06;158441.91;;;-0.45;100.00
42945;BME280;28584;42.636;23.294;2023-03-16T05:10:33;158445.88;;;-0.44;100.00
42945;BME280;28584;42.636;23.294;2023-03-16T05:12:59;158440.59;;;-0.46;100.00
42945;BME280;28584;42.636;23.294;2023-03-16T05:15:25;158467.09;;;-0.36;100.00
42945;BME280;28584;42.636;23.294;2023-03-16T05:17:50;158472.34;;;-0.34;100.00
42945;BME280;28584;42.636;23.294;2023-03-16T05:20:16;158481.66;;;-0.30;100.00
42945;BME280;28584;42.636;23.294;2023-03-16T05:22:44;158496.22;;;-0.25;100.00
42945;BME280;28584;42.636;23.294;2023-03-16T05:25:11;158493.56;;;-0.26;100.00
42945;BME280;28584;42.636;23.294;2023-03-16T05:27:47;158482.94;;;-0.30;100.00
42945;BME280;28584;42.636;23.294;2023-03-16T05:30:14;158464.41;;;-0.37;100.00
42945;BME280;28584;42.636;23.294;2023-03-16T05:32:41;158451.19;;;-0.42;100.00
42945;BME280;28584;42.636;23.294;2023-03-16T05:35:07;158448.56;;;-0.43;100.00
42945;BME280;28584;42.636;23.294;2023-03-16T05:37:33;158440.59;;;-0.46;100.00
42945;BME280;28584;42.636;23.294;2023-03-16T05:40:03;158445.88;;;-0.44;100.00
42945;BME280;28584;42.636;23.294;2023-03-16T05:42:36;158444.59;;;-0.44;100.00
42945;BME280;28584;42.636;23.294;2023-03-16T05:45:01;158448.56;;;-0.43;100.00
42945;BME280;28584;42.636;23.294;2023-03-16T05:47:27;158456.50;;;-0.40;100.00
42945;BME280;28584;42.636;23.294;2023-03-16T05:49:52;158453.81;;;-0.41;100.00
42945;BME280;28584;42.636;23.294;2023-03-16T05:52:17;158440.59;;;-0.46;100.00
42945;BME280;28584;42.636;23.294;2023-03-16T05:54:43;158448.56;;;-0.43;100.00
42945;BME280;28584;42.636;23.294;2023-03-16T05:57:08;158447.22;;;-0.43;100.00
42945;BME280;28584;42.636;23.294;2023-03-16T05:59:33;158440.59;;;-0.46;100.00
42945;BME280;28584;42.636;23.294;2023-03-16T06:01:59;158453.81;;;-0.41;100.00
42945;BME280;28584;42.636;23.294;2023-03-16T06:04:24;158451.19;;;-0.42;100.00
42945;BME280;28584;42.636;23.294;2023-03-16T06:06:49;158448.56;;;-0.43;100.00
42945;BME280;28584;42.636;23.294;2023-03-16T06:09:15;158476.34;;;-0.32;100.00
42945;BME280;28584;42.636;23.294;2023-03-16T06:11:40;158485.63;;;-0.29;100.00
42945;BME280;28584;42.636;23.294;2023-03-16T06:14:06;158500.19;;;-0.23;100.00
42945;BME280;28584;42.636;23.294;2023-03-16T06:16:31;158486.91;;;-0.28;100.00
42945;BME280;28584;42.636;23.294;2023-03-16T06:18:56;158509.44;;;-0.20;100.00
42945;BME280;28584;42.636;23.294;2023-03-16T06:21:22;158496.22;;;-0.25;100.00
42945;BME280;28584;42.636;23.294;2023-03-16T06:23:48;158490.91;;;-0.27;100.00
42945;BME280;28584;42.636;23.294;2023-03-16T06:26:13;158488.25;;;-0.28;100.00
42945;BME280;28584;42.636;23.294;2023-03-16T06:28:39;158479.03;;;-0.31;100.00
42945;BME280;28584;42.636;23.294;2023-03-16T06:31:05;158490.91;;;-0.27;100.00
42945;BME280;28584;42.636;23.294;2023-03-16T06:33:30;158482.94;;;-0.30;100.00
42945;BME280;28584;42.636;23.294;2023-03-16T06:35:56;158489.59;;;-0.27;100.00
42945;BME280;28584;42.636;23.294;2023-03-16T06:38:21;158485.63;;;-0.29;100.00
42945;BME280;28584;42.636;23.294;2023-03-16T06:40:51;158488.25;;;-0.28;100.00
42945;BME280;28584;42.636;23.294;2023-03-16T06:43:17;158489.59;;;-0.27;100.00
42945;BME280;28584;42.636;23.294;2023-03-16T06:45:42;158500.19;;;-0.23;100.00
42945;BME280;28584;42.636;23.294;2023-03-16T06:48:08;158502.81;;;-0.22;100.00
42945;BME280;28584;42.636;23.294;2023-03-16T06:50:34;158500.19;;;-0.23;100.00
42945;BME280;28584;42.636;23.294;2023-03-16T06:52:59;158517.38;;;-0.17;100.00
42945;BME280;28584;42.636;23.294;2023-03-16T06:55:25;158538.59;;;-0.09;100.00
42945;BME280;28584;42.636;23.294;2023-03-16T06:57:50;158529.31;;;-0.12;100.00
42945;BME280;28584;42.636;23.294;2023-03-16T07:00:16;158508.13;;;-0.20;100.00
42945;BME280;28584;42.636;23.294;2023-03-16T07:02:41;158538.59;;;-0.09;100.00
42945;BME280;28584;42.636;23.294;2023-03-16T07:05:08;158562.41;;;0.00;100.00
42945;BME280;28584;42.636;23.294;2023-03-16T07:07:38;158594.22;;;0.13;100.00
42945;BME280;28584;42.636;23.294;2023-03-16T07:10:04;158588.91;;;0.11;100.00
42945;BME280;28584;42.636;23.294;2023-03-16T07:12:29;158583.59;;;0.08;100.00
42945;BME280;28584;42.636;23.294;2023-03-16T07:14:55;158604.81;;;0.17;100.00
42945;BME280;28584;42.636;23.294;2023-03-16T07:17:20;158614.06;;;0.20;100.00
42945;BME280;28584;42.636;23.294;2023-03-16T07:19:46;158639.25;;;0.30;100.00
42945;BME280;28584;42.636;23.294;2023-03-16T07:22:11;158616.75;;;0.21;100.00
42945;BME280;28584;42.636;23.294;2023-03-16T07:24:37;158622.00;;;0.23;100.00
42945;BME280;28584;42.636;23.294;2023-03-16T07:27:02;158588.91;;;0.11;100.00
42945;BME280;28584;42.636;23.294;2023-03-16T07:29:27;158636.56;;;0.29;100.00
42945;BME280;28584;42.636;23.294;2023-03-16T07:31:53;158616.75;;;0.21;100.00
42945;BME280;28584;42.636;23.294;2023-03-16T07:34:19;158636.56;;;0.29;100.00
42945;BME280;28584;42.636;23.294;2023-03-16T07:36:45;158607.44;;;0.18;100.00
42945;BME280;28584;42.636;23.294;2023-03-16T07:39:13;158615.41;;;0.21;100.00
42945;BME280;28584;42.636;23.294;2023-03-16T07:41:38;158647.16;;;0.33;100.00
42945;BME280;28584;42.636;23.294;2023-03-16T07:44:04;158667.06;;;0.40;100.00
42945;BME280;28584;42.636;23.294;2023-03-16T07:46:29;158690.91;;;0.49;100.00
42945;BME280;28584;42.636;23.294;2023-03-16T07:48:57;158705.50;;;0.55;100.00
42945;BME280;28584;42.636;23.294;2023-03-16T07:51:22;158692.22;;;0.50;100.00
42945;BME280;28584;42.636;23.294;2023-03-16T07:53:48;158729.31;;;0.64;100.00
42945;BME280;28584;42.636;23.294;2023-03-16T07:56:13;158721.34;;;0.61;100.00
42945;BME280;28584;42.636;23.294;2023-03-16T07:58:39;158726.69;;;0.63;100.00
42945;BME280;28584;42.636;23.294;2023-03-16T08:01:04;158751.84;;;0.72;100.00
42945;BME280;28584;42.636;23.294;2023-03-16T08:03:30;158755.81;;;0.74;100.00
42945;BME280;28584;42.636;23.294;2023-03-16T08:05:56;158787.66;;;0.86;100.00
42945;BME280;28584;42.636;23.294;2023-03-16T08:08:21;158798.25;;;0.90;100.00
42945;BME280;28584;42.636;23.294;2023-03-16T08:10:48;158851.28;;;1.10;100.00
42945;BME280;28584;42.636;23.294;2023-03-16T08:13:17;158933.47;;;1.41;100.00
42945;BME280;28584;42.636;23.294;2023-03-16T08:15:47;158930.78;;;1.40;100.00
42945;BME280;28584;42.636;23.294;2023-03-16T08:18:12;158883.06;;;1.22;100.00
42945;BME280;28584;42.636;23.294;2023-03-16T08:20:38;158863.16;;;1.14;100.00
42945;BME280;28584;42.636;23.294;2023-03-16T08:23:03;158864.50;;;1.15;100.00
42945;BME280;28584;42.636;23.294;2023-03-16T08:25:28;158836.69;;;1.04;100.00
42945;BME280;28584;42.636;23.294;2023-03-16T08:27:54;158852.56;;;1.10;100.00
42945;BME280;28584;42.636;23.294;2023-03-16T08:30:19;158872.47;;;1.18;100.00
42945;BME280;28584;42.636;23.294;2023-03-16T08:32:46;158887.06;;;1.23;100.00
42945;BME280;28584;42.636;23.294;2023-03-16T08:35:13;158885.72;;;1.23;100.00
42945;BME280;28584;42.636;23.294;2023-03-16T08:37:40;158877.78;;;1.20;100.00
42945;BME280;28584;42.636;23.294;2023-03-16T08:40:06;158949.34;;;1.47;100.00
42945;BME280;28584;42.636;23.294;2023-03-16T08:42:35;159030.28;;;1.77;100.00
42945;BME280;28584;42.636;23.294;2023-03-16T08:45:04;159007.75;;;1.69;100.00
42945;BME280;28584;42.636;23.294;2023-03-16T08:47:34;159028.94;;;1.77;100.00
42945;BME280;28584;42.636;23.294;2023-03-16T08:49:59;159137.72;;;2.18;100.00
42945;BME280;28584;42.636;23.294;2023-03-16T08:52:26;159143.00;;;2.20;100.00
42945;BME280;28584;42.636;23.294;2023-03-16T08:54:51;159221.31;;;2.49;100.00
42945;BME280;28584;42.636;23.294;2023-03-16T08:57:17;159202.72;;;2.42;100.00
42945;BME280;28584;42.636;23.294;2023-03-16T08:59:43;159172.25;;;2.31;100.00
42945;BME280;28584;42.636;23.294;2023-03-16T09:02:11;159149.69;;;2.22;100.00
42945;BME280;28584;42.636;23.294;2023-03-16T09:04:39;159079.38;;;1.96;100.00
42945;BME280;28584;42.636;23.294;2023-03-16T09:07:05;159086.00;;;1.98;100.00
42945;BME280;28584;42.636;23.294;2023-03-16T09:09:31;159152.31;;;2.23;100.00
42945;BME280;28584;42.636;23.294;2023-03-16T09:11:56;159164.28;;;2.28;100.00
42945;BME280;28584;42.636;23.294;2023-03-16T09:14:23;159129.75;;;2.15;100.00
42945;BME280;28584;42.636;23.294;2023-03-16T09:16:49;159066.09;;;1.91;100.00
42945;BME280;28584;42.636;23.294;2023-03-16T09:19:14;159056.81;;;1.87;100.00
42945;BME280;28584;42.636;23.294;2023-03-16T09:21:41;159030.28;;;1.77;100.00
42945;BME280;28584;42.636;23.294;2023-03-16T09:24:06;158987.81;;;1.61;100.00
42945;BME280;28584;42.636;23.294;2023-03-16T09:26:34;159074.03;;;1.94;100.00
42945;BME280;28584;42.636;23.294;2023-03-16T09:28:59;159063.44;;;1.90;100.00
42945;BME280;28584;42.636;23.294;2023-03-16T09:31:25;159023.63;;;1.75;100.00
42945;BME280;28584;42.636;23.294;2023-03-16T09:33:50;158962.63;;;1.52;100.00
42945;BME280;28584;42.636;23.294;2023-03-16T09:36:16;158979.88;;;1.58;100.00
42945;BME280;28584;42.636;23.294;2023-03-16T09:38:42;158993.16;;;1.63;100.00
42945;BME280;28584;42.636;23.294;2023-03-16T09:41:09;158999.78;;;1.66;100.00
42945;BME280;28584;42.636;23.294;2023-03-16T09:43:50;158993.16;;;1.63;100.00
42945;BME280;28584;42.636;23.294;2023-03-16T09:46:27;158978.56;;;1.58;100.00
42945;BME280;28584;42.636;23.294;2023-03-16T09:48:54;158950.69;;;1.47;100.00
42945;BME280;28584;42.636;23.294;2023-03-16T09:54:30;158921.53;;;1.36;100.00
42945;BME280;28584;42.636;23.294;2023-03-16T09:56:59;158949.34;;;1.47;100.00
42945;BME280;28584;42.636;23.294;2023-03-16T09:59:25;158942.75;;;1.44;100.00
42945;BME280;28584;42.636;23.294;2023-03-16T10:02:16;158946.72;;;1.46;100.00
42945;BME280;28584;42.636;23.294;2023-03-16T10:05:07;158957.31;;;1.50;100.00
42945;BME280;28584;42.636;23.294;2023-03-16T10:07:55;159018.34;;;1.73;100.00
42945;BME280;28584;42.636;23.294;2023-03-16T10:13:27;159002.41;;;1.67;100.00
42945;BME280;28584;42.636;23.294;2023-03-16T10:15:57;159042.19;;;1.82;100.00
42945;BME280;28584;42.636;23.294;2023-03-16T10:18:27;159042.19;;;1.82;100.00
42945;BME280;28584;42.636;23.294;2023-03-16T10:20:56;159009.03;;;1.69;100.00
42945;BME280;28584;42.636;23.294;2023-03-16T10:23:24;158991.81;;;1.63;100.00
42945;BME280;28584;42.636;23.294;2023-03-16T10:25:54;158957.31;;;1.50;100.00
42945;BME280;28584;42.636;23.294;2023-03-16T10:28:24;158954.69;;;1.49;100.00
42945;BME280;28584;42.636;23.294;2023-03-16T10:30:53;158986.47;;;1.61;100.00
42945;BME280;28584;42.636;23.294;2023-03-16T10:33:26;159014.34;;;1.71;100.00
42945;BME280;28584;42.636;23.294;2023-03-16T10:43:48;158962.63;;;1.52;100.00
42945;BME280;28584;42.636;23.294;2023-03-16T10:46:14;158957.31;;;1.50;100.00
42945;BME280;28584;42.636;23.294;2023-03-16T10:48:40;158983.84;;;1.60;100.00
42945;BME280;28584;42.636;23.294;2023-03-16T10:51:14;158967.91;;;1.54;100.00
42945;BME280;28584;42.636;23.294;2023-03-16T10:53:42;158962.63;;;1.52;100.00
42945;BME280;28584;42.636;23.294;2023-03-16T10:56:19;158991.81;;;1.63;100.00
42945;BME280;28584;42.636;23.294;2023-03-16T10:58:46;158998.44;;;1.65;100.00
42945;BME280;28584;42.636;23.294;2023-03-16T11:01:26;158969.25;;;1.54;100.00
42945;BME280;28584;42.636;23.294;2023-03-16T11:03:54;158979.88;;;1.58;100.00
42945;BME280;28584;42.636;23.294;2023-03-16T11:06:29;158933.47;;;1.41;100.00
42945;BME280;28584;42.636;23.294;2023-03-16T11:09:10;158997.13;;;1.65;100.00
42945;BME280;28584;42.636;23.294;2023-03-16T11:11:37;159050.16;;;1.85;100.00
42945;BME280;28584;42.636;23.294;2023-03-16T11:14:11;159042.19;;;1.82;100.00
42945;BME280;28584;42.636;23.294;2023-03-16T11:19:13;159043.53;;;1.82;100.00
42945;BME280;28584;42.636;23.294;2023-03-16T11:21:47;159042.19;;;1.82;100.00
42945;BME280;28584;42.636;23.294;2023-03-16T11:26:54;159066.09;;;1.91;100.00
42945;BME280;28584;42.636;23.294;2023-03-16T11:32:04;159047.50;;;1.84;100.00
42945;BME280;28584;42.636;23.294;2023-03-16T11:34:34;159038.25;;;1.80;100.00
42945;BME280;28584;42.636;23.294;2023-03-16T11:37:12;159018.34;;;1.73;100.00
42945;BME280;28584;42.636;23.294;2023-03-16T11:48:28;159002.41;;;1.67;100.00
42945;BME280;28584;42.636;23.294;2023-03-16T11:51:04;158957.31;;;1.50;100.00
42945;BME280;28584;42.636;23.294;2023-03-16T11:56:05;158983.84;;;1.60;100.00
42945;BME280;28584;42.636;23.294;2023-03-16T12:07:57;158838.00;;;1.05;100.00
42945;BME280;28584;42.636;23.294;2023-03-16T12:13:09;158861.88;;;1.14;100.00
42945;BME280;28584;42.636;23.294;2023-03-16T12:16:04;158887.06;;;1.23;100.00
42945;BME280;28584;42.636;23.294;2023-03-16T12:19:03;158901.63;;;1.29;100.00
42945;BME280;28584;42.636;23.294;2023-03-16T12:21:34;158889.69;;;1.24;100.00
42945;BME280;28584;42.636;23.294;2023-03-16T12:24:03;158875.09;;;1.19;100.00
42945;BME280;28584;42.636;23.294;2023-03-16T12:26:35;158869.84;;;1.17;100.00
42945;BME280;28584;42.636;23.294;2023-03-16T12:42:37;158782.34;;;0.84;100.00
42945;BME280;28584;42.636;23.294;2023-03-16T12:50:30;158700.16;;;0.53;100.00
42945;BME280;28584;42.636;23.294;2023-03-16T12:52:55;158697.53;;;0.52;100.00
42945;BME280;28584;42.636;23.294;2023-03-16T12:55:50;158689.56;;;0.49;100.00
42945;BME280;28584;42.636;23.294;2023-03-16T12:58:16;158671.03;;;0.42;100.00
42945;BME280;28584;42.636;23.294;2023-03-16T13:00:42;158696.19;;;0.51;100.00
42945;BME280;28584;42.636;23.294;2023-03-16T13:03:14;158689.56;;;0.49;100.00
42945;BME280;28584;42.636;23.294;2023-03-16T13:05:48;158673.66;;;0.43;100.00
42945;BME280;28584;42.636;23.294;2023-03-16T13:08:16;158671.03;;;0.42;100.00
42945;BME280;28584;42.636;23.294;2023-03-16T13:11:01;158688.25;;;0.48;100.00
42945;BME280;28584;42.636;23.294;2023-03-16T13:13:26;158690.91;;;0.49;100.00
42945;BME280;28584;42.636;23.294;2023-03-16T13:16:07;158721.34;;;0.61;100.00
42945;BME280;28584;42.636;23.294;2023-03-16T13:18:41;158721.34;;;0.61;100.00
42945;BME280;28584;42.636;23.294;2023-03-16T13:21:16;158755.81;;;0.74;100.00
42945;BME280;28584;42.636;23.294;2023-03-16T13:23:58;158766.41;;;0.78;100.00
42945;BME280;28584;42.636;23.294;2023-03-16T13:26:40;158774.38;;;0.81;100.00
42945;BME280;28584;42.636;23.294;2023-03-16T13:29:28;158753.19;;;0.73;100.00
42945;BME280;28584;42.636;23.294;2023-03-16T13:31:57;158798.25;;;0.90;100.00
42945;BME280;28584;42.636;23.294;2023-03-16T13:34:28;158806.22;;;0.93;100.00
42945;BME280;28584;42.636;23.294;2023-03-16T13:36:56;158774.38;;;0.81;100.00
42945;BME280;28584;42.636;23.294;2023-03-16T13:39:23;158777.06;;;0.82;100.00
42945;BME280;28584;42.636;23.294;2023-03-16T13:44:22;158792.91;;;0.88;100.00
42945;BME280;28584;42.636;23.294;2023-03-16T13:46:48;158791.63;;;0.87;100.00
42945;BME280;28584;42.636;23.294;2023-03-16T13:49:15;158792.91;;;0.88;100.00
42945;BME280;28584;42.636;23.294;2023-03-16T13:51:40;158798.25;;;0.90;100.00
42945;BME280;28584;42.636;23.294;2023-03-16T13:56:45;158787.66;;;0.86;100.00
42945;BME280;28584;42.636;23.294;2023-03-16T13:59:11;158794.28;;;0.88;100.00